Time;durP1;ratioP1;P1;durP2;ratioP2;P2;SDS_P1;SDS_P2;PMS_P1;PMS_P2;Temp;Humidity;BMP_temperature;BMP_pressure;BME280_temperature;BME280_humidity;BME280_pressure;Samples;Min_cycle;Max_cycle;Signal;HPM_P1;HPM_P2
2023/01/02 00:02:10;;;;;;;8.95;3.38;;;13.40;99.90;;;;;;5054452;28;20028;-86
2023/01/02 00:04:36;;;;;;;13.60;2.80;;;13.50;99.90;;;;;;5054319;28;20040;-87
2023/01/02 00:07:01;;;;;;;16.00;3.80;;;13.50;99.90;;;;;;5052467;28;20026;-86
2023/01/02 00:09:27;;;;;;;12.20;2.47;;;13.50;99.90;;;;;;5054056;28;20126;-87
2023/01/02 00:11:53;;;;;;;13.77;3.78;;;13.50;99.90;;;;;;5053155;28;20017;-87
2023/01/02 00:14:18;;;;;;;8.77;2.55;;;13.40;99.90;;;;;;5054215;28;20037;-86
2023/01/02 00:16:44;;;;;;;11.63;3.38;;;13.40;99.90;;;;;;5053162;28;20188;-87
2023/01/02 00:19:10;;;;;;;12.23;3.75;;;13.40;99.90;;;;;;5052818;28;20036;-87
2023/01/02 00:21:35;;;;;;;16.00;3.78;;;13.40;99.90;;;;;;5052391;28;20025;-88
2023/01/02 00:24:01;;;;;;;11.98;3.30;;;13.30;99.90;;;;;;5053845;28;20021;-87
2023/01/02 00:26:28;;;;;;;13.50;3.80;;;13.20;99.90;;;;;;5052740;28;20083;-87
2023/01/02 00:28:54;;;;;;;13.65;4.30;;;13.20;99.90;;;;;;5053698;28;20415;-87
2023/01/02 00:31:19;;;;;;;12.18;4.18;;;13.10;99.90;;;;;;5053979;28;20021;-87
2023/01/02 00:33:45;;;;;;;12.18;4.60;;;13.00;99.90;;;;;;5053623;28;20029;-87
2023/01/02 00:36:11;;;;;;;13.75;3.97;;;13.10;99.90;;;;;;5052273;28;20021;-87
2023/01/02 00:38:38;;;;;;;8.88;3.83;;;13.00;99.90;;;;;;5052342;28;20037;-88
2023/01/02 00:41:05;;;;;;;11.43;3.63;;;13.00;99.90;;;;;;5051209;28;20425;-87
2023/01/02 00:43:30;;;;;;;12.48;4.25;;;13.00;99.90;;;;;;5053644;28;20025;-87
2023/01/02 00:45:56;;;;;;;9.48;3.80;;;13.00;99.90;;;;;;5053921;28;20025;-86
2023/01/02 00:48:22;;;;;;;11.65;3.97;;;13.00;99.90;;;;;;5053317;28;20370;-87
2023/01/02 00:50:48;;;;;;;14.63;3.38;;;12.90;99.90;;;;;;5051823;28;20032;-86
2023/01/02 00:53:14;;;;;;;11.02;3.42;;;13.00;99.90;;;;;;5053649;28;20036;-87
2023/01/02 00:55:42;;;;;;;10.60;3.53;;;12.90;99.90;;;;;;5051991;28;20025;-87
2023/01/02 00:58:08;;;;;;;13.10;3.67;;;13.00;99.90;;;;;;5053539;28;20052;-86
2023/01/02 01:00:33;;;;;;;12.05;3.60;;;13.00;99.90;;;;;;5053119;28;20482;-87
2023/01/02 01:02:59;;;;;;;13.50;4.15;;;12.90;99.90;;;;;;5051908;28;20087;-86
2023/01/02 01:05:26;;;;;;;14.20;3.80;;;12.90;99.90;;;;;;5053009;28;20041;-87
2023/01/02 01:07:53;;;;;;;13.13;3.97;;;12.90;99.90;;;;;;5052615;28;20398;-86
2023/01/02 01:10:19;;;;;;;6.93;2.35;;;12.90;99.90;;;;;;5051750;28;20025;-87
2023/01/02 01:12:45;;;;;;;13.63;3.60;;;12.90;99.90;;;;;;5052915;28;20028;-87
2023/01/02 01:15:11;;;;;;;10.60;3.75;;;12.90;99.90;;;;;;5053030;28;20033;-87
2023/01/02 01:17:37;;;;;;;12.18;2.90;;;12.90;99.90;;;;;;5052677;28;20060;-87
2023/01/02 01:20:03;;;;;;;17.25;3.60;;;12.90;99.90;;;;;;5051551;28;20116;-86
2023/01/02 01:22:28;;;;;;;10.48;3.63;;;12.90;99.90;;;;;;5052754;28;20082;-87
2023/01/02 01:24:54;;;;;;;11.05;3.80;;;12.90;99.90;;;;;;5052743;28;20021;-86
2023/01/02 01:27:20;;;;;;;10.90;3.47;;;12.80;99.90;;;;;;5051390;28;20079;-87
2023/01/02 01:29:45;;;;;;;11.02;3.78;;;12.80;99.90;;;;;;5052858;28;20025;-86
2023/01/02 01:32:11;;;;;;;10.02;3.33;;;12.80;99.90;;;;;;5052927;28;20021;-87
2023/01/02 01:34:36;;;;;;;12.38;3.30;;;12.80;99.90;;;;;;5052262;28;20481;-87
2023/01/02 01:37:02;;;;;;;15.23;3.75;;;12.80;99.90;;;;;;5052417;28;20155;-87
2023/01/02 01:39:28;;;;;;;13.20;3.28;;;12.80;99.90;;;;;;5051200;28;20374;-87
2023/01/02 01:41:53;;;;;;;13.88;3.55;;;12.80;99.90;;;;;;5051291;28;20099;-87
2023/01/02 01:44:52;;;;;;;12.07;3.58;;;12.80;99.90;;;;;;5052849;28;20489;-87
2023/01/02 01:47:47;;;;;;;11.65;3.88;;;12.80;99.90;;;;;;5051944;28;20443;-86
2023/01/02 01:50:34;;;;;;;12.90;3.22;;;12.80;99.90;;;;;;5051537;28;20036;-87
2023/01/02 01:53:10;;;;;;;13.85;4.38;;;12.80;99.90;;;;;;5052296;28;20120;-87
2023/01/02 01:55:44;;;;;;;16.50;4.47;;;12.70;99.90;;;;;;5052390;28;20021;-87
2023/01/02 01:58:16;;;;;;;13.35;3.80;;;12.70;99.90;;;;;;5052414;28;20053;-87
2023/01/02 02:00:42;;;;;;;15.75;4.22;;;12.60;99.90;;;;;;5052126;28;20569;-87
2023/01/02 02:03:13;;;;;;;15.98;3.80;;;12.70;99.90;;;;;;5050554;28;20405;-87
2023/01/02 02:05:41;;;;;;;11.25;3.53;;;12.70;99.90;;;;;;5052094;28;20075;-87
2023/01/02 02:08:23;;;;;;;13.68;4.07;;;12.70;99.90;;;;;;5050539;28;20045;-87
2023/01/02 02:10:51;;;;;;;11.88;3.85;;;12.70;99.90;;;;;;5050870;28;20060;-87
2023/01/02 02:13:17;;;;;;;12.15;3.70;;;12.70;99.90;;;;;;5052044;28;20031;-86
2023/01/02 02:15:54;;;;;;;11.48;3.95;;;12.70;99.90;;;;;;5052407;28;20481;-87
2023/01/02 02:18:42;;;;;;;11.02;3.58;;;12.70;99.90;;;;;;5051645;28;20025;-87
2023/01/02 02:21:28;;;;;;;11.38;3.95;;;12.70;99.90;;;;;;5051894;28;20032;-87
2023/01/02 02:24:23;;;;;;;10.02;3.88;;;12.70;99.90;;;;;;5052070;28;20032;-86
2023/01/02 02:27:23;;;;;;;17.30;4.32;;;12.70;99.90;;;;;;5050715;28;20025;-87
2023/01/02 02:30:15;;;;;;;14.65;3.85;;;12.60;99.90;;;;;;5051897;28;20124;-86
2023/01/02 02:33:18;;;;;;;14.48;3.92;;;12.60;99.90;;;;;;5051579;28;20024;-87
2023/01/02 02:36:03;;;;;;;8.38;2.90;;;12.70;99.90;;;;;;5030466;28;20028;-87
2023/01/02 02:38:50;;;;;;;14.27;4.22;;;12.60;99.90;;;;;;5032294;28;20064;-87
2023/01/02 02:41:26;;;;;;;9.63;3.70;;;12.60;99.90;;;;;;5031899;28;20036;-87
2023/01/02 02:44:01;;;;;;;17.15;4.18;;;12.60;99.90;;;;;;5030534;28;20056;-87
2023/01/02 02:46:44;;;;;;;13.50;3.40;;;12.70;99.90;;;;;;5030249;28;20445;-87
2023/01/02 02:49:41;;;;;;;11.25;3.90;;;12.60;99.90;;;;;;5030509;28;20529;-87
2023/01/02 02:52:20;;;;;;;11.68;3.58;;;12.60;99.90;;;;;;5032178;28;20028;-87
2023/01/02 02:54:58;;;;;;;11.77;3.67;;;12.60;99.90;;;;;;5030417;28;20057;-87
2023/01/02 02:57:24;;;;;;;12.98;3.58;;;12.60;99.90;;;;;;5032177;28;20038;-86
2023/01/02 02:59:51;;;;;;;11.65;3.92;;;12.60;99.90;;;;;;5031320;28;20025;-86
2023/01/02 03:02:17;;;;;;;12.10;3.80;;;12.60;99.90;;;;;;5031453;28;20026;-87
2023/01/02 03:04:47;;;;;;;9.82;3.30;;;12.50;99.90;;;;;;5035295;28;20355;-86
2023/01/02 03:07:35;;;;;;;11.88;3.70;;;12.60;99.90;;;;;;5035236;28;20486;-87
2023/01/02 03:10:19;;;;;;;12.73;4.03;;;12.60;99.90;;;;;;5054008;28;20025;-87
2023/01/02 03:12:54;;;;;;;14.52;3.83;;;12.70;99.90;;;;;;5055230;28;20046;-87
2023/01/02 03:15:55;;;;;;;9.75;3.47;;;12.70;99.90;;;;;;5053579;28;20033;-87
2023/01/02 03:18:52;;;;;;;12.18;3.72;;;12.60;99.90;;;;;;5013057;28;20447;-86
2023/01/02 03:21:28;;;;;;;11.32;3.60;;;12.60;99.90;;;;;;4996639;28;20137;-87
2023/01/02 03:23:57;;;;;;;16.33;3.97;;;12.60;99.90;;;;;;4996993;28;20029;-87
2023/01/02 03:26:28;;;;;;;15.30;3.70;;;12.60;99.90;;;;;;5013013;28;20626;-86
2023/01/02 03:28:59;;;;;;;14.98;3.90;;;12.60;99.90;;;;;;5012560;28;20057;-87
2023/01/02 03:31:27;;;;;;;14.23;3.58;;;12.60;99.90;;;;;;5013049;28;20654;-87
2023/01/02 03:34:08;;;;;;;12.35;4.25;;;12.70;99.90;;;;;;5012690;28;20029;-87
2023/01/02 03:36:38;;;;;;;16.08;3.63;;;12.70;99.90;;;;;;5012934;28;20502;-87
2023/01/02 03:39:11;;;;;;;11.23;3.58;;;12.60;99.90;;;;;;5012643;28;20060;-87
2023/01/02 03:41:45;;;;;;;11.98;3.30;;;12.60;99.90;;;;;;5013170;28;20018;-87
2023/01/02 03:44:13;;;;;;;14.50;3.53;;;12.60;99.90;;;;;;5012913;28;20496;-87
2023/01/02 03:46:44;;;;;;;12.50;3.50;;;12.60;99.90;;;;;;5013010;28;20029;-87
2023/01/02 03:49:40;;;;;;;13.02;3.83;;;12.60;99.90;;;;;;5012388;28;20100;-87
2023/01/02 03:52:06;;;;;;;9.63;3.53;;;12.60;99.90;;;;;;5011386;28;20034;-87
2023/01/02 03:54:31;;;;;;;9.75;2.92;;;12.70;99.90;;;;;;5017829;28;20445;-87
2023/01/02 03:57:09;;;;;;;11.93;3.40;;;12.70;99.90;;;;;;5054527;28;20498;-87
2023/01/02 03:59:55;;;;;;;7.65;2.03;;;12.70;99.90;;;;;;5054007;28;20115;-87
2023/01/02 04:02:44;;;;;;;11.00;3.45;;;12.80;99.90;;;;;;5053218;28;20135;-87
2023/01/02 04:05:26;;;;;;;10.88;3.55;;;12.70;99.90;;;;;;5053036;28;20029;-87
2023/01/02 04:08:04;;;;;;;10.68;3.10;;;12.70;99.90;;;;;;5053774;28;20132;-86
2023/01/02 04:10:33;;;;;;;9.43;3.25;;;12.70;99.90;;;;;;5054091;28;20029;-87
2023/01/02 04:13:03;;;;;;;11.35;3.45;;;12.80;99.90;;;;;;5053820;28;20025;-87
2023/01/02 04:15:33;;;;;;;7.35;2.90;;;12.70;99.90;;;;;;5054048;28;20036;-87
2023/01/02 04:18:07;;;;;;;11.80;3.22;;;12.70;99.90;;;;;;5054329;28;20558;-87
2023/01/02 04:20:40;;;;;;;10.05;3.42;;;12.80;99.90;;;;;;5054218;28;20054;-87
2023/01/02 04:23:15;;;;;;;7.90;2.80;;;12.90;99.90;;;;;;5053937;28;20017;-87
2023/01/02 04:25:57;;;;;;;9.68;2.75;;;12.80;99.90;;;;;;5054227;28;20029;-87
2023/01/02 04:28:28;;;;;;;14.68;3.83;;;12.80;99.90;;;;;;5053404;28;20068;-86
2023/01/02 04:31:02;;;;;;;11.98;3.30;;;12.70;99.90;;;;;;5053879;28;20106;-87
2023/01/02 04:33:29;;;;;;;13.02;3.25;;;12.80;99.90;;;;;;5052747;28;20079;-87
2023/01/02 04:35:55;;;;;;;10.60;3.00;;;12.80;99.90;;;;;;5053688;28;20056;-87
2023/01/02 04:38:20;;;;;;;12.63;3.25;;;12.80;99.90;;;;;;5053758;28;20082;-87
2023/01/02 04:40:46;;;;;;;14.95;3.20;;;12.80;99.90;;;;;;5054020;28;20147;-87
2023/01/02 04:43:21;;;;;;;7.78;3.17;;;12.80;99.90;;;;;;5053251;28;20078;-86
2023/01/02 04:45:48;;;;;;;10.93;3.03;;;12.70;99.90;;;;;;5053469;28;20029;-86
2023/01/02 04:48:14;;;;;;;11.77;3.35;;;12.80;99.90;;;;;;5053439;28;20048;-87
2023/01/02 04:50:39;;;;;;;10.10;3.38;;;12.80;99.90;;;;;;5052255;28;20082;-87
2023/01/02 04:53:05;;;;;;;10.65;3.10;;;12.90;99.90;;;;;;5053729;28;20505;-87
2023/01/02 04:55:31;;;;;;;11.57;2.88;;;12.90;99.90;;;;;;5053443;28;20025;-86
2023/01/02 04:57:57;;;;;;;11.07;2.88;;;13.00;99.90;;;;;;5053337;28;20052;-86
2023/01/02 05:00:23;;;;;;;16.33;3.42;;;13.00;99.90;;;;;;5051821;28;20489;-87
2023/01/02 05:02:49;;;;;;;11.70;3.58;;;12.90;99.90;;;;;;5053240;28;20060;-87
2023/01/02 05:05:14;;;;;;;8.35;2.10;;;12.90;99.90;;;;;;5052222;28;20043;-87
2023/01/02 05:07:40;;;;;;;11.00;3.00;;;12.90;99.90;;;;;;5051984;28;20535;-87
2023/01/02 05:10:06;;;;;;;11.32;3.30;;;12.90;99.90;;;;;;5052825;28;20044;-87
2023/01/02 05:12:34;;;;;;;12.63;3.65;;;12.90;99.90;;;;;;5052998;28;20032;-87
2023/01/02 05:14:59;;;;;;;13.38;3.40;;;12.90;99.90;;;;;;5052898;28;20112;-87
2023/01/02 05:17:25;;;;;;;13.13;2.95;;;13.00;99.90;;;;;;5052711;28;20541;-87
2023/01/02 05:19:51;;;;;;;9.95;2.92;;;12.90;99.90;;;;;;5053202;28;20393;-87
2023/01/02 05:25:00;;;;;;;8.15;3.00;;;12.90;99.90;;;;;;5052817;28;20116;-87
2023/01/02 05:27:26;;;;;;;7.75;2.25;;;12.90;99.90;;;;;;5051682;28;20104;-88
2023/01/02 05:29:52;;;;;;;11.68;3.53;;;12.90;99.90;;;;;;5051140;28;20025;-87
2023/01/02 05:32:17;;;;;;;13.30;3.15;;;13.00;99.90;;;;;;5052507;28;20021;-87
2023/01/02 05:34:43;;;;;;;13.00;3.03;;;13.00;99.90;;;;;;5052531;28;20025;-88
2023/01/02 05:37:08;;;;;;;12.88;3.58;;;13.00;99.90;;;;;;5052604;28;20118;-87
2023/01/02 05:39:34;;;;;;;7.13;3.42;;;13.00;99.90;;;;;;5052065;28;20017;-87
2023/01/02 05:42:00;;;;;;;7.50;2.63;;;13.10;99.90;;;;;;5052796;28;20486;-87
2023/01/02 05:44:25;;;;;;;9.80;3.55;;;13.10;99.90;;;;;;5050938;28;20021;-87
2023/01/02 05:46:52;;;;;;;4.20;2.10;;;13.10;99.90;;;;;;5052649;28;20029;-88
2023/01/02 05:49:18;;;;;;;12.60;2.97;;;13.10;99.90;;;;;;5052176;28;20471;-87
2023/01/02 05:51:43;;;;;;;9.52;2.63;;;13.00;99.90;;;;;;5051021;28;20115;-86
2023/01/02 05:54:09;;;;;;;8.88;3.42;;;13.00;99.90;;;;;;5052532;28;20402;-87
2023/01/02 05:56:35;;;;;;;14.13;2.83;;;13.00;99.90;;;;;;5052307;28;20489;-87
2023/01/02 05:59:00;;;;;;;8.10;3.35;;;13.00;99.90;;;;;;5050774;28;20029;-87
2023/01/02 06:01:29;;;;;;;10.38;2.80;;;13.00;99.90;;;;;;5052615;28;20025;-87
2023/01/02 06:03:58;;;;;;;9.85;2.65;;;12.90;99.90;;;;;;5052065;28;20486;-87
2023/01/02 06:06:31;;;;;;;10.45;2.88;;;13.00;99.90;;;;;;5051086;28;20468;-87
2023/01/02 06:09:00;;;;;;;8.65;2.55;;;13.00;99.90;;;;;;5049851;28;20428;-88
2023/01/02 06:11:27;;;;;;;11.32;3.50;;;13.00;99.90;;;;;;5050665;28;20025;-87
2023/01/02 06:13:53;;;;;;;13.52;3.55;;;13.00;99.90;;;;;;5051864;28;20024;-87
2023/01/02 06:16:19;;;;;;;12.55;2.90;;;13.00;99.90;;;;;;5052277;28;20108;-87
2023/01/02 06:18:45;;;;;;;11.85;3.00;;;13.00;99.90;;;;;;5051876;28;20108;-88
2023/01/02 06:21:13;;;;;;;11.88;3.00;;;13.00;99.90;;;;;;5051997;28;20025;-87
2023/01/02 06:23:39;;;;;;;10.50;2.58;;;13.00;99.90;;;;;;5051733;28;20048;-87
2023/01/02 06:26:07;;;;;;;14.25;3.55;;;13.00;99.90;;;;;;5051888;28;20032;-87
2023/01/02 06:28:32;;;;;;;8.02;2.88;;;13.00;99.90;;;;;;5051772;28;20037;-87
2023/01/02 06:31:00;;;;;;;9.90;2.70;;;13.00;99.90;;;;;;5051909;28;20561;-87
2023/01/02 06:33:26;;;;;;;7.65;2.95;;;13.10;99.90;;;;;;5050792;28;20025;-87
2023/01/02 06:36:08;;;;;;;5.93;2.00;;;13.10;99.90;;;;;;5051818;28;20025;-88
2023/01/02 06:38:34;;;;;;;9.68;2.35;;;13.20;99.90;;;;;;5053180;28;20029;-88
2023/01/02 06:41:01;;;;;;;9.68;2.80;;;13.20;99.90;;;;;;5055766;28;20032;-87
2023/01/02 06:43:29;;;;;;;11.57;2.65;;;13.20;99.90;;;;;;5055874;28;20108;-87
2023/01/02 06:45:59;;;;;;;5.63;2.03;;;13.20;99.90;;;;;;5056077;28;20013;-87
2023/01/02 06:48:25;;;;;;;8.38;3.08;;;13.10;99.90;;;;;;5055529;28;20044;-87
2023/01/02 06:50:51;;;;;;;11.48;3.28;;;13.20;99.90;;;;;;5055782;28;20100;-87
2023/01/02 06:53:16;;;;;;;11.02;2.75;;;13.20;99.90;;;;;;5053995;28;20562;-87
2023/01/02 06:55:53;;;;;;;10.10;2.60;;;13.10;99.90;;;;;;5054125;28;20024;-86
2023/01/02 06:58:19;;;;;;;10.95;1.88;;;13.10;99.90;;;;;;5055522;28;20029;-87
2023/01/02 07:00:46;;;;;;;9.73;3.13;;;13.20;99.90;;;;;;5055412;28;20378;-87
2023/01/02 07:03:12;;;;;;;8.45;2.70;;;13.10;99.90;;;;;;5054545;28;20033;-87
2023/01/02 07:05:37;;;;;;;8.73;2.40;;;13.00;99.90;;;;;;5055456;28;20032;-87
2023/01/02 07:08:03;;;;;;;4.55;1.92;;;13.10;99.90;;;;;;5054594;28;20053;-87
2023/01/02 07:10:29;;;;;;;9.02;2.53;;;13.10;99.90;;;;;;5055561;28;20536;-87
2023/01/02 07:12:55;;;;;;;5.95;1.90;;;13.00;99.90;;;;;;5055070;28;20021;-87
2023/01/02 07:15:20;;;;;;;7.78;2.83;;;13.00;99.90;;;;;;5055232;28;20025;-87
2023/01/02 07:17:46;;;;;;;8.55;2.72;;;13.00;99.90;;;;;;5056080;28;20024;-87
2023/01/02 07:20:12;;;;;;;13.30;2.88;;;12.90;99.90;;;;;;5053856;28;20025;-87
2023/01/02 07:22:37;;;;;;;9.57;2.88;;;12.90;99.90;;;;;;5054774;28;20021;-87
2023/01/02 07:25:03;;;;;;;14.07;2.78;;;13.00;99.90;;;;;;5054733;28;20123;-87
2023/01/02 07:27:30;;;;;;;9.15;2.47;;;13.00;99.90;;;;;;5053306;28;20025;-87
2023/01/02 07:29:55;;;;;;;9.95;2.42;;;13.00;99.90;;;;;;5053654;28;20504;-87
2023/01/02 07:32:22;;;;;;;3.65;2.00;;;13.10;99.90;;;;;;5053976;28;20044;-87
2023/01/02 07:34:47;;;;;;;13.25;2.75;;;13.10;99.90;;;;;;5054660;28;20025;-87
2023/01/02 07:37:13;;;;;;;11.25;2.50;;;13.00;99.90;;;;;;5053085;28;20037;-87
2023/01/02 07:39:39;;;;;;;8.85;2.10;;;13.00;99.90;;;;;;5054654;28;20025;-87
2023/01/02 07:42:04;;;;;;;13.63;3.33;;;13.10;99.90;;;;;;5055041;28;20067;-87
2023/01/02 07:44:30;;;;;;;13.55;1.95;;;13.20;99.90;;;;;;5054694;28;20025;-88
2023/01/02 07:46:56;;;;;;;10.90;2.70;;;13.30;99.90;;;;;;5053395;28;20052;-87
2023/01/02 07:49:21;;;;;;;11.77;2.85;;;13.20;99.90;;;;;;5053878;28;20043;-87
2023/01/02 07:51:47;;;;;;;7.38;1.88;;;13.20;99.90;;;;;;5054211;28;20021;-88
2023/01/02 07:54:13;;;;;;;11.57;3.00;;;13.30;99.90;;;;;;5054466;28;20028;-87
2023/01/02 07:56:38;;;;;;;7.85;3.05;;;13.30;99.90;;;;;;5054454;28;20616;-87
2023/01/02 07:59:04;;;;;;;10.88;2.80;;;13.30;99.90;;;;;;5054187;28;20070;-87
2023/01/02 08:01:30;;;;;;;7.70;2.60;;;13.20;99.90;;;;;;5054336;28;20477;-87
2023/01/02 08:03:55;;;;;;;8.30;2.58;;;13.20;99.90;;;;;;5054355;28;20031;-88
2023/01/02 08:06:21;;;;;;;11.77;2.78;;;13.40;99.90;;;;;;5054409;28;20394;-87
2023/01/02 08:08:47;;;;;;;8.30;2.58;;;13.50;99.90;;;;;;5053623;28;20052;-87
2023/01/02 08:11:15;;;;;;;11.38;2.85;;;13.40;99.90;;;;;;5054343;28;20024;-88
2023/01/02 08:13:41;;;;;;;9.63;2.67;;;13.50;99.90;;;;;;5054301;28;20029;-87
2023/01/02 08:16:10;;;;;;;7.57;2.33;;;13.50;99.90;;;;;;5053978;28;20025;-87
2023/01/02 08:18:36;;;;;;;9.40;2.58;;;13.60;99.90;;;;;;5053908;28;20111;-87
2023/01/02 08:21:02;;;;;;;4.57;2.10;;;13.60;99.90;;;;;;5053694;28;20549;-87
2023/01/02 08:23:28;;;;;;;7.88;2.80;;;13.60;99.90;;;;;;5054280;28;20107;-87
2023/01/02 08:26:01;;;;;;;9.30;2.58;;;13.50;99.90;;;;;;5053835;28;20052;-87
2023/01/02 08:28:27;;;;;;;10.70;3.20;;;13.60;99.90;;;;;;5053672;28;20082;-87
2023/01/02 08:30:53;;;;;;;6.25;2.15;;;13.60;99.90;;;;;;5054282;28;20031;-87
2023/01/02 08:33:19;;;;;;;10.10;2.67;;;13.50;99.90;;;;;;5053249;28;20036;-87
2023/01/02 08:35:44;;;;;;;11.80;2.63;;;13.60;99.90;;;;;;5053753;28;20025;-88
2023/01/02 08:38:10;;;;;;;8.80;2.28;;;13.60;99.90;;;;;;5053596;28;20040;-87
2023/01/02 08:40:36;;;;;;;10.80;2.70;;;13.50;99.90;;;;;;5052582;28;20375;-87
2023/01/02 08:43:01;;;;;;;11.23;2.47;;;13.50;99.90;;;;;;5053797;28;20017;-87
2023/01/02 08:45:27;;;;;;;5.13;2.30;;;13.60;99.90;;;;;;5052168;28;20486;-87
2023/01/02 08:47:53;;;;;;;11.82;3.20;;;13.50;99.90;;;;;;5052953;28;20123;-87
2023/01/02 08:50:18;;;;;;;8.27;2.97;;;13.60;99.90;;;;;;5053412;28;20040;-87
2023/01/02 08:52:44;;;;;;;8.68;2.92;;;13.60;99.90;;;;;;5053744;28;20033;-87
2023/01/02 08:55:10;;;;;;;15.00;3.35;;;13.60;99.90;;;;;;5053393;28;20028;-87
2023/01/02 08:57:36;;;;;;;7.97;2.53;;;13.70;99.90;;;;;;5053300;28;20421;-87
2023/01/02 09:00:03;;;;;;;13.23;2.90;;;13.70;99.90;;;;;;5052889;28;20467;-87
2023/01/02 09:02:28;;;;;;;11.73;3.15;;;13.60;99.90;;;;;;5051382;28;20558;-87
2023/01/02 09:04:54;;;;;;;11.38;2.92;;;13.70;99.90;;;;;;5051663;28;20051;-88
2023/01/02 09:07:20;;;;;;;9.07;2.58;;;13.70;99.90;;;;;;5053155;28;20040;-87
2023/01/02 09:09:46;;;;;;;13.35;3.25;;;13.80;99.90;;;;;;5052719;28;20536;-87
2023/01/02 09:12:11;;;;;;;15.13;3.13;;;13.90;99.90;;;;;;5051728;28;20043;-87
2023/01/02 09:14:37;;;;;;;11.55;3.00;;;14.00;99.90;;;;;;5052938;28;20036;-87
2023/01/02 09:17:03;;;;;;;14.38;3.03;;;14.00;99.90;;;;;;5052660;28;20473;-87
2023/01/02 09:19:29;;;;;;;8.15;2.80;;;14.10;99.90;;;;;;5051953;28;20075;-87
2023/01/02 09:21:54;;;;;;;10.10;2.92;;;14.10;99.90;;;;;;5052712;28;20124;-87
2023/01/02 09:24:20;;;;;;;7.88;3.03;;;14.10;99.90;;;;;;5052921;28;20164;-87
2023/01/02 09:26:46;;;;;;;10.85;2.80;;;14.10;99.90;;;;;;5052473;28;20505;-88
2023/01/02 09:29:13;;;;;;;10.60;3.10;;;14.20;99.90;;;;;;5052819;28;20036;-88
2023/01/02 09:31:39;;;;;;;10.10;3.00;;;14.20;99.90;;;;;;5052319;28;20389;-87
2023/01/02 09:34:05;;;;;;;11.32;2.78;;;14.30;99.90;;;;;;5052604;28;20053;-88
2023/01/02 09:36:31;;;;;;;9.95;3.17;;;14.40;99.90;;;;;;5052478;28;20114;-87
2023/01/02 09:38:59;;;;;;;9.45;3.05;;;14.40;99.90;;;;;;5052628;28;20612;-87
2023/01/02 09:41:43;;;;;;;12.85;3.15;;;14.50;99.90;;;;;;5052771;28;20025;-87
2023/01/02 09:44:30;;;;;;;7.38;2.90;;;14.80;99.90;;;;;;5052431;28;20083;-87
2023/01/02 09:47:13;;;;;;;10.35;3.20;;;16.00;99.90;;;;;;5051105;28;20035;-87
2023/01/02 09:50:01;;;;;;;8.55;2.45;;;15.70;99.90;;;;;;5052139;28;20093;-87
2023/01/02 09:52:31;;;;;;;10.45;2.90;;;15.00;99.90;;;;;;5052196;28;20029;-88
2023/01/02 09:54:57;;;;;;;7.95;2.65;;;14.80;99.90;;;;;;5052161;28;20024;-87
2023/01/02 09:57:23;;;;;;;11.13;3.22;;;14.70;99.90;;;;;;5052426;28;20029;-87
2023/01/02 10:00:15;;;;;;;10.93;2.65;;;14.60;99.90;;;;;;5052186;28;20389;-87
2023/01/02 10:03:00;;;;;;;11.63;3.47;;;14.80;99.90;;;;;;5052054;28;20493;-87
2023/01/02 10:06:01;;;;;;;9.15;2.92;;;15.10;99.90;;;;;;5052369;28;20111;-87
2023/01/02 10:08:46;;;;;;;8.40;2.78;;;15.80;99.90;;;;;;5050064;28;20182;-88
2023/01/02 10:11:36;;;;;;;8.88;2.47;;;16.80;99.90;;;;;;5050877;28;20039;-87
2023/01/02 10:14:04;;;;;;;9.27;2.88;;;16.00;99.90;;;;;;5051967;28;20052;-87
2023/01/02 10:16:35;;;;;;;13.55;2.90;;;16.00;99.90;;;;;;5051590;28;20078;-88
2023/01/02 10:19:06;;;;;;;12.35;3.05;;;16.00;99.90;;;;;;5051757;28;20025;-87
2023/01/02 10:21:36;;;;;;;10.60;3.03;;;15.70;99.90;;;;;;5052020;28;20020;-87
2023/01/02 10:24:17;;;;;;;10.75;3.25;;;16.00;99.90;;;;;;5051912;28;20492;-87
2023/01/02 10:26:48;;;;;;;8.85;2.92;;;15.70;99.90;;;;;;5052069;28;20021;-88
2023/01/02 10:29:34;;;;;;;9.18;2.70;;;15.90;99.90;;;;;;5050005;28;20041;-87
2023/01/02 10:32:04;;;;;;;6.30;3.20;;;15.80;99.90;;;;;;5052135;28;20036;-87
2023/01/02 10:34:56;;;;;;;9.65;2.95;;;15.80;99.90;;;;;;5050287;28;20119;-88
2023/01/02 10:37:24;;;;;;;6.32;2.40;;;15.80;99.90;;;;;;5040947;28;20501;-87
2023/01/02 10:39:50;;;;;;;9.18;2.75;;;15.50;99.90;;;;;;5050267;28;20025;-87
2023/01/02 10:42:16;;;;;;;6.65;2.30;;;15.40;99.90;;;;;;5051896;28;20037;-88
2023/01/02 10:44:44;;;;;;;13.05;2.88;;;15.50;99.90;;;;;;5051356;28;20024;-87
2023/01/02 10:47:09;;;;;;;12.70;2.97;;;15.60;99.90;;;;;;5052164;28;20033;-88
2023/01/02 10:49:36;;;;;;;6.97;2.72;;;15.70;99.90;;;;;;5051802;28;20037;-87
2023/01/02 10:52:12;;;;;;;6.50;3.03;;;15.90;99.90;;;;;;5051794;28;20028;-87
2023/01/02 10:54:50;;;;;;;7.82;2.15;;;15.80;99.90;;;;;;5051731;28;20032;-88
2023/01/02 10:57:23;;;;;;;6.15;2.28;;;16.20;99.90;;;;;;5051864;28;20574;-87
2023/01/02 10:59:54;;;;;;;7.85;2.85;;;16.30;99.90;;;;;;5050188;28;20032;-87
2023/01/02 11:02:40;;;;;;;7.63;2.45;;;16.30;99.90;;;;;;5051374;28;20033;-87
2023/01/02 11:05:16;;;;;;;6.53;2.40;;;17.10;99.90;;;;;;5051712;28;20075;-86
2023/01/02 11:07:47;;;;;;;7.55;2.83;;;17.60;99.90;;;;;;5049858;28;20045;-87
2023/01/02 11:10:27;;;;;;;5.93;2.70;;;17.50;99.90;;;;;;5031511;28;20068;-88
2023/01/02 11:12:54;;;;;;;6.75;2.58;;;17.30;99.90;;;;;;5031168;28;20470;-87
2023/01/02 11:15:29;;;;;;;5.63;2.10;;;17.10;99.90;;;;;;5031731;28;20501;-87
2023/01/02 11:17:57;;;;;;;6.93;2.42;;;16.60;99.90;;;;;;5031559;28;20056;-87
2023/01/02 11:20:29;;;;;;;8.88;2.58;;;16.60;99.90;;;;;;5030188;28;20555;-88
2023/01/02 11:22:57;;;;;;;6.05;2.55;;;16.60;99.90;;;;;;5031530;28;20080;-87
2023/01/02 11:25:39;;;;;;;7.93;2.72;;;16.60;99.90;;;;;;5034643;28;20515;-88
2023/01/02 11:28:12;;;;;;;5.00;2.58;;;16.50;99.90;;;;;;5034658;28;20065;-87
2023/01/02 11:30:48;;;;;;;4.72;2.20;;;16.50;99.90;;;;;;5034901;28;20041;-88
2023/01/02 11:33:29;;;;;;;9.38;2.90;;;16.50;99.90;;;;;;5034966;28;20034;-88
2023/01/02 11:36:04;;;;;;;8.38;2.33;;;16.60;99.90;;;;;;5034896;28;20171;-87
2023/01/02 11:38:48;;;;;;;5.55;2.55;;;16.50;99.90;;;;;;5035100;28;20033;-87
2023/01/02 11:44:34;;;;;;;5.75;2.30;;;16.70;99.90;;;;;;5035076;28;20552;-87
2023/01/02 11:47:02;;;;;;;9.35;2.50;;;16.60;99.90;;;;;;5026209;28;20486;-87
2023/01/02 11:49:47;;;;;;;9.35;2.60;;;16.50;99.90;;;;;;5033279;28;20034;-88
2023/01/02 11:52:17;;;;;;;11.45;3.03;;;16.50;99.90;;;;;;5034669;28;20108;-87
2023/01/02 11:54:59;;;;;;;7.03;2.67;;;16.40;99.90;;;;;;5034639;28;20029;-87
2023/01/02 11:57:32;;;;;;;9.18;2.67;;;16.30;99.90;;;;;;5033266;28;20025;-87
2023/01/02 12:00:02;;;;;;;5.65;2.30;;;16.30;99.90;;;;;;5033113;28;20543;-88
2023/01/02 12:02:43;;;;;;;6.85;2.92;;;16.30;99.90;;;;;;5034427;28;20078;-87
2023/01/02 12:05:15;;;;;;;4.30;1.85;;;16.30;99.90;;;;;;5034307;28;20025;-87
2023/01/02 12:07:46;;;;;;;5.20;2.63;;;16.10;99.90;;;;;;5034089;28;20029;-87
2023/01/02 12:10:46;;;;;;;8.50;2.60;;;16.10;99.90;;;;;;5052695;28;20413;-88
2023/01/02 12:13:39;;;;;;;6.45;2.40;;;16.20;99.90;;;;;;5052712;28;20132;-87
2023/01/02 12:16:14;;;;;;;5.28;2.05;;;16.20;99.90;;;;;;5054070;28;20029;-87
2023/01/02 12:18:55;;;;;;;5.32;2.25;;;16.20;99.90;;;;;;5052840;28;20036;-87
2023/01/02 12:21:31;;;;;;;10.57;2.60;;;16.10;99.90;;;;;;5053660;28;20036;-87
2023/01/02 12:24:21;;;;;;;5.35;2.45;;;16.10;99.90;;;;;;5053950;28;20450;-87
2023/01/02 12:27:12;;;;;;;10.57;2.63;;;16.10;99.90;;;;;;5053460;28;20386;-88
2023/01/02 12:30:07;;;;;;;7.85;2.80;;;16.10;99.90;;;;;;5054090;28;20029;-86
2023/01/02 12:32:54;;;;;;;7.82;2.38;;;16.10;99.90;;;;;;5053318;28;20032;-87
2023/01/02 12:35:22;;;;;;;3.28;1.90;;;16.20;99.90;;;;;;5051277;28;20086;-87
2023/01/02 12:37:56;;;;;;;7.90;2.95;;;16.10;99.90;;;;;;5053550;28;20025;-87
2023/01/02 12:40:39;;;;;;;7.93;2.50;;;16.10;99.90;;;;;;5051848;28;20043;-87
2023/01/02 12:43:26;;;;;;;6.65;2.90;;;16.10;99.90;;;;;;5053440;28;20033;-88
2023/01/02 12:46:18;;;;;;;6.85;2.65;;;16.10;99.90;;;;;;5052206;28;20067;-87
2023/01/02 12:49:14;;;;;;;5.05;2.72;;;16.00;99.90;;;;;;5053410;28;20040;-87
2023/01/02 12:51:53;;;;;;;6.38;2.50;;;15.90;99.90;;;;;;5053631;28;20501;-87
2023/01/02 12:54:22;;;;;;;10.93;2.58;;;16.00;99.90;;;;;;5053125;28;20071;-88
2023/01/02 12:57:13;;;;;;;9.30;2.83;;;15.90;99.90;;;;;;5053433;28;20021;-87
2023/01/02 12:59:53;;;;;;;9.45;3.00;;;15.90;99.90;;;;;;5053175;28;20021;-86
2023/01/02 13:02:48;;;;;;;6.38;2.40;;;15.90;99.90;;;;;;5053474;28;20032;-88
2023/01/02 13:05:19;;;;;;;7.65;2.28;;;16.00;99.90;;;;;;5052844;28;20079;-88
2023/01/02 13:07:56;;;;;;;7.03;2.30;;;16.00;99.90;;;;;;5053230;28;20045;-87
2023/01/02 13:10:25;;;;;;;5.07;2.38;;;16.00;99.90;;;;;;5052612;28;20036;-87